createdAt,value
2024-01-20T00:02:25.233Z,-1.66
2024-01-20T00:04:52.482Z,-1.70
2024-01-20T00:07:20.630Z,-1.70
2024-01-20T00:09:51.184Z,-1.78
2024-01-20T00:12:19.049Z,-1.76
2024-01-20T00:14:46.140Z,-1.74
2024-01-20T00:17:21.160Z,-1.76
2024-01-20T00:19:54.229Z,-1.79
2024-01-20T00:22:22.097Z,-1.80
2024-01-20T00:24:49.022Z,-1.79
2024-01-20T00:27:16.141Z,-1.85
2024-01-20T00:29:42.853Z,-1.81
2024-01-20T00:32:09.898Z,-1.79
2024-01-20T00:34:50.600Z,-1.83
2024-01-20T00:37:23.739Z,-1.87
2024-01-20T00:39:50.240Z,-1.99
2024-01-20T00:42:16.873Z,-2.04
2024-01-20T00:44:43.797Z,-1.95
2024-01-20T00:47:10.540Z,-1.91
2024-01-20T00:49:37.368Z,-1.94
2024-01-20T00:52:04.225Z,-1.94
2024-01-20T00:54:30.771Z,-2.00
2024-01-20T00:56:57.225Z,-1.98
2024-01-20T00:59:23.947Z,-1.97
2024-01-20T01:01:50.640Z,-1.96
2024-01-20T01:04:17.527Z,-1.99
2024-01-20T01:06:44.190Z,-2.03
2024-01-20T01:09:11.018Z,-1.96
2024-01-20T01:11:37.544Z,-2.00
2024-01-20T01:14:04.168Z,-2.06
2024-01-20T01:16:30.747Z,-2.11
2024-01-20T01:18:57.959Z,-2.02
2024-01-20T01:21:24.807Z,-2.07
2024-01-20T01:23:51.297Z,-1.99
2024-01-20T01:26:18.809Z,-2.01
2024-01-20T01:28:45.636Z,-2.01
2024-01-20T01:31:12.576Z,-2.01
2024-01-20T01:33:39.360Z,-2.01
2024-01-20T01:36:06.626Z,-2.07
2024-01-20T01:38:33.460Z,-2.05
2024-01-20T01:41:00.364Z,-2.07
2024-01-20T01:43:27.014Z,-2.09
2024-01-20T01:45:53.644Z,-2.12
2024-01-20T01:48:22.041Z,-2.19
2024-01-20T01:50:50.083Z,-2.13
2024-01-20T01:53:16.834Z,-2.14
2024-01-20T01:55:44.968Z,-2.14
2024-01-20T01:58:11.602Z,-2.18
2024-01-20T02:00:38.519Z,-2.20
2024-01-20T02:03:05.721Z,-2.16
2024-01-20T02:05:32.450Z,-2.15
2024-01-20T02:07:59.902Z,-2.14
2024-01-20T02:10:26.540Z,-2.19
2024-01-20T02:12:53.608Z,-2.10
2024-01-20T02:15:20.282Z,-2.11
2024-01-20T02:17:54.913Z,-2.09
2024-01-20T02:20:21.524Z,-2.09
2024-01-20T02:22:48.185Z,-2.04
2024-01-20T02:25:14.759Z,-2.09
2024-01-20T02:27:41.477Z,-2.08
2024-01-20T02:30:08.565Z,-2.10
2024-01-20T02:32:35.309Z,-2.06
2024-01-20T02:35:01.894Z,-2.10
2024-01-20T02:37:28.458Z,-2.10
2024-01-20T02:39:54.981Z,-2.12
2024-01-20T02:42:21.635Z,-2.14
2024-01-20T02:44:48.282Z,-2.09
2024-01-20T02:47:15.214Z,-2.10
2024-01-20T02:49:41.939Z,-2.12
2024-01-20T02:52:08.631Z,-2.11
2024-01-20T02:54:35.203Z,-2.09
2024-01-20T02:57:01.883Z,-2.10
2024-01-20T02:59:28.697Z,-2.12
2024-01-20T03:01:55.200Z,-2.15
2024-01-20T03:04:21.936Z,-2.14
2024-01-20T03:06:48.541Z,-2.13
2024-01-20T03:09:16.081Z,-2.18
2024-01-20T03:11:45.709Z,-2.20
2024-01-20T03:14:12.743Z,-2.30
2024-01-20T03:16:39.710Z,-2.20
2024-01-20T03:19:07.641Z,-2.20
2024-01-20T03:21:35.348Z,-2.24
2024-01-20T03:24:02.088Z,-2.17
2024-01-20T03:26:28.962Z,-2.20
2024-01-20T03:28:55.583Z,-2.18
2024-01-20T03:31:22.161Z,-2.16
2024-01-20T03:33:48.772Z,-2.12
2024-01-20T03:36:15.354Z,-2.10
2024-01-20T03:38:41.897Z,-2.13
2024-01-20T03:41:08.470Z,-2.13
2024-01-20T03:43:34.956Z,-2.13
2024-01-20T03:46:01.539Z,-2.25
2024-01-20T03:48:28.211Z,-2.07
2024-01-20T03:50:54.856Z,-2.02
2024-01-20T03:53:21.555Z,-2.01
2024-01-20T03:55:48.014Z,-2.04
2024-01-20T03:58:14.513Z,-2.09
2024-01-20T04:00:41.105Z,-1.97
2024-01-20T04:03:07.835Z,-1.93
2024-01-20T04:05:34.406Z,-1.94
2024-01-20T04:08:00.930Z,-1.97
2024-01-20T04:10:27.515Z,-1.97
2024-01-20T04:12:54.012Z,-2.03
2024-01-20T04:15:20.617Z,-2.02
2024-01-20T04:17:47.260Z,-2.05
2024-01-20T04:20:13.958Z,-2.14
2024-01-20T04:22:40.522Z,-2.13
2024-01-20T04:25:07.765Z,-2.17
2024-01-20T04:27:41.210Z,-2.25
2024-01-20T04:30:12.623Z,-2.25
2024-01-20T04:32:39.205Z,-2.28
2024-01-20T04:35:06.950Z,-2.28
2024-01-20T04:37:33.616Z,-2.26
2024-01-20T04:40:01.417Z,-2.29
2024-01-20T04:42:28.028Z,-2.31
2024-01-20T04:44:54.626Z,-2.26
2024-01-20T04:47:21.188Z,-2.23
2024-01-20T04:49:49.832Z,-2.30
2024-01-20T04:52:16.396Z,-2.29
2024-01-20T04:54:42.933Z,-2.35
2024-01-20T04:57:10.359Z,-2.31
2024-01-20T04:59:36.893Z,-2.44
2024-01-20T05:02:03.734Z,-2.45
2024-01-20T05:04:30.327Z,-2.47
2024-01-20T05:06:56.986Z,-2.53
2024-01-20T05:09:23.638Z,-2.52
2024-01-20T05:11:50.169Z,-2.57
2024-01-20T05:14:16.857Z,-2.58
2024-01-20T05:16:43.325Z,-2.62
2024-01-20T05:19:10.129Z,-2.62
2024-01-20T05:21:38.850Z,-2.71
2024-01-20T05:24:06.364Z,-2.67
2024-01-20T05:26:33.792Z,-2.71
2024-01-20T05:29:00.937Z,-2.72
2024-01-20T05:31:32.707Z,-2.69
2024-01-20T05:34:00.028Z,-2.63
2024-01-20T05:36:26.893Z,-2.60
2024-01-20T05:38:53.476Z,-2.67
2024-01-20T05:41:20.126Z,-2.69
2024-01-20T05:43:46.642Z,-2.65
2024-01-20T05:46:13.104Z,-2.56
2024-01-20T05:48:39.794Z,-2.67
2024-01-20T05:51:06.881Z,-2.69
2024-01-20T05:53:33.557Z,-2.71
2024-01-20T05:56:00.117Z,-2.68
2024-01-20T05:58:26.670Z,-2.68
2024-01-20T06:00:53.320Z,-2.69
2024-01-20T06:03:20.006Z,-2.61
2024-01-20T06:05:46.815Z,-2.66
2024-01-20T06:08:13.351Z,-2.65
2024-01-20T06:10:40.471Z,-2.68
2024-01-20T06:13:07.170Z,-2.69
2024-01-20T06:15:33.876Z,-2.68
2024-01-20T06:18:00.527Z,-2.64
2024-01-20T06:20:27.527Z,-2.66
2024-01-20T06:22:54.111Z,-2.66
2024-01-20T06:25:20.687Z,-2.62
2024-01-20T06:27:47.587Z,-2.58
2024-01-20T06:30:14.440Z,-2.60
2024-01-20T06:32:41.056Z,-2.60
2024-01-20T06:35:08.636Z,-2.54
2024-01-20T06:37:35.649Z,-2.53
2024-01-20T06:40:02.278Z,-2.40
2024-01-20T06:42:28.825Z,-2.32
2024-01-20T06:44:57.225Z,-2.47
2024-01-20T06:47:24.883Z,-2.39
2024-01-20T06:49:51.593Z,-2.25
2024-01-20T06:52:18.138Z,-2.20
2024-01-20T06:54:44.763Z,-2.23
2024-01-20T06:57:11.436Z,-2.22
2024-01-20T06:59:38.445Z,-2.20
2024-01-20T07:02:05.270Z,-2.12
2024-01-20T07:04:32.380Z,-2.06
2024-01-20T07:06:59.087Z,-1.99
2024-01-20T07:09:26.688Z,-1.97
2024-01-20T07:11:56.548Z,-1.92
2024-01-20T07:14:24.847Z,-1.91
2024-01-20T07:16:51.722Z,-1.88
2024-01-20T07:19:18.444Z,-1.84
2024-01-20T07:21:45.009Z,-1.82
2024-01-20T07:24:11.595Z,-1.76
2024-01-20T07:26:38.191Z,-1.84
2024-01-20T07:29:04.753Z,-1.79
2024-01-20T07:31:31.300Z,-1.91
2024-01-20T07:33:57.945Z,-1.78
2024-01-20T07:36:24.551Z,-1.69
2024-01-20T07:38:51.093Z,-1.74
2024-01-20T07:41:17.560Z,-1.76
2024-01-20T07:43:45.251Z,-1.65
2024-01-20T07:46:12.294Z,-1.62
2024-01-20T07:48:38.821Z,-1.67
2024-01-20T07:51:05.568Z,-1.69
2024-01-20T07:53:32.042Z,-1.58
2024-01-20T07:55:58.927Z,-1.62
2024-01-20T07:58:25.735Z,-1.48
2024-01-20T08:00:52.471Z,-1.67
2024-01-20T08:03:19.097Z,-1.51
2024-01-20T08:05:47.061Z,-1.43
2024-01-20T08:08:13.987Z,-1.36
2024-01-20T08:10:40.725Z,-1.25
2024-01-20T08:13:07.330Z,-1.20
2024-01-20T08:15:36.694Z,-1.12
2024-01-20T08:18:03.593Z,-1.12
2024-01-20T08:20:30.364Z,-1.01
2024-01-20T08:22:57.729Z,-0.97
2024-01-20T08:25:24.361Z,-0.91
2024-01-20T08:27:50.952Z,-1.02
2024-01-20T08:30:17.650Z,-0.93
2024-01-20T08:32:44.292Z,-0.85
2024-01-20T08:35:11.829Z,-0.89
2024-01-20T08:37:38.508Z,-0.84
2024-01-20T08:40:05.470Z,-0.72
2024-01-20T08:42:32.102Z,-0.67
2024-01-20T08:44:58.727Z,-0.59
2024-01-20T08:47:25.298Z,-0.45
2024-01-20T08:49:53.241Z,-0.46
2024-01-20T08:52:20.289Z,-0.36
2024-01-20T08:54:48.136Z,-0.30
2024-01-20T08:57:15.138Z,-0.14
2024-01-20T08:59:41.740Z,0.01
2024-01-20T09:02:08.822Z,-0.03
2024-01-20T09:04:36.013Z,0.07
2024-01-20T09:07:03.146Z,0.24
2024-01-20T09:09:29.810Z,0.32
2024-01-20T09:11:56.540Z,0.39
2024-01-20T09:14:23.100Z,0.32
2024-01-20T09:16:49.793Z,0.27
2024-01-20T09:19:17.105Z,0.55
2024-01-20T09:21:47.815Z,0.76
2024-01-20T09:24:14.928Z,0.69
2024-01-20T09:26:41.672Z,0.53
2024-01-20T09:29:08.209Z,0.60
2024-01-20T09:31:34.830Z,0.70
2024-01-20T09:34:01.413Z,0.76
2024-01-20T09:36:29.052Z,0.84
2024-01-20T09:38:55.669Z,0.94
2024-01-20T09:41:22.611Z,0.89
2024-01-20T09:43:49.415Z,1.03
2024-01-20T09:46:16.533Z,0.94
2024-01-20T09:48:44.586Z,1.15
2024-01-20T09:51:11.929Z,1.11
2024-01-20T09:53:39.979Z,1.17
2024-01-20T09:56:07.088Z,1.20
2024-01-20T09:58:36.451Z,1.14
2024-01-20T10:01:04.250Z,1.29
2024-01-20T10:03:35.944Z,1.28
2024-01-20T10:06:02.693Z,1.31
2024-01-20T10:08:29.195Z,1.34
2024-01-20T10:11:05.692Z,1.41
2024-01-20T10:13:32.538Z,1.49
2024-01-20T10:15:59.323Z,1.54
2024-01-20T10:18:26.110Z,1.42
2024-01-20T10:21:03.667Z,1.49
2024-01-20T10:23:30.584Z,1.67
2024-01-20T10:26:01.361Z,1.74
2024-01-20T10:28:27.899Z,1.89
2024-01-20T10:30:54.859Z,1.90
2024-01-20T10:33:21.626Z,1.96
2024-01-20T10:35:48.256Z,2.09
2024-01-20T10:38:15.679Z,1.96
2024-01-20T10:40:44.370Z,1.96
2024-01-20T10:43:16.080Z,2.12
2024-01-20T10:45:53.237Z,2.24
2024-01-20T10:48:22.605Z,2.02
2024-01-20T10:50:59.334Z,2.06
2024-01-20T10:53:29.298Z,2.03
2024-01-20T10:55:56.249Z,1.93
2024-01-20T10:58:28.885Z,1.86
2024-01-20T11:00:56.065Z,1.73
2024-01-20T11:03:23.416Z,1.82
2024-01-20T11:05:50.070Z,1.83
2024-01-20T11:08:25.188Z,2.04
2024-01-20T11:10:54.513Z,2.08
2024-01-20T11:13:24.824Z,2.38
2024-01-20T11:15:52.448Z,2.46
2024-01-20T11:18:24.282Z,2.53
2024-01-20T11:21:17.245Z,2.48
2024-01-20T11:23:59.629Z,2.39
2024-01-20T11:26:37.415Z,2.31
2024-01-20T11:29:08.932Z,2.45
2024-01-20T11:31:36.028Z,2.58
2024-01-20T11:34:04.405Z,2.49
2024-01-20T11:36:32.382Z,2.59
2024-01-20T11:39:00.216Z,2.53
2024-01-20T11:41:27.917Z,2.46
2024-01-20T11:43:54.473Z,2.37
2024-01-20T11:46:21.336Z,2.53
2024-01-20T11:48:48.747Z,2.43
2024-01-20T11:51:16.493Z,2.55
2024-01-20T11:53:44.441Z,2.56
2024-01-20T11:56:10.963Z,2.63
2024-01-20T11:58:37.570Z,2.67
2024-01-20T12:01:04.588Z,2.69
2024-01-20T12:03:31.281Z,2.58
2024-01-20T12:06:05.450Z,2.68
2024-01-20T12:08:32.546Z,2.66
2024-01-20T12:10:59.121Z,2.67
2024-01-20T12:13:27.899Z,2.52
2024-01-20T12:15:55.211Z,2.54
2024-01-20T12:18:22.223Z,2.57
2024-01-20T12:20:48.964Z,2.58
2024-01-20T12:23:21.924Z,2.66
2024-01-20T12:25:55.893Z,2.81
2024-01-20T12:28:22.885Z,2.77
2024-01-20T12:30:49.939Z,2.71
2024-01-20T12:33:16.678Z,2.69
2024-01-20T12:35:43.315Z,2.53
2024-01-20T12:38:10.017Z,2.42
2024-01-20T12:40:36.617Z,2.37
2024-01-20T12:43:03.409Z,2.33
2024-01-20T12:45:29.995Z,2.36
2024-01-20T12:47:57.706Z,2.45
2024-01-20T12:50:24.357Z,2.33
2024-01-20T12:52:51.067Z,2.29
2024-01-20T12:55:17.750Z,2.29
2024-01-20T12:57:44.329Z,2.17
2024-01-20T13:00:11.786Z,2.27
2024-01-20T13:02:38.591Z,2.24
2024-01-20T13:05:05.780Z,2.19
2024-01-20T13:07:32.306Z,2.15
2024-01-20T13:09:58.974Z,2.42
2024-01-20T13:12:25.519Z,2.44
2024-01-20T13:14:52.136Z,2.54
2024-01-20T13:17:18.738Z,2.49
2024-01-20T13:19:45.412Z,2.52
2024-01-20T13:22:13.481Z,2.46
2024-01-20T13:24:40.224Z,2.25
2024-01-20T13:27:07.310Z,2.18
2024-01-20T13:29:34.733Z,2.22
2024-01-20T13:32:02.078Z,2.23
2024-01-20T13:34:28.668Z,2.23
2024-01-20T13:36:55.228Z,2.31
2024-01-20T13:39:21.872Z,2.35
2024-01-20T13:41:48.354Z,2.25
2024-01-20T13:44:14.832Z,2.14
2024-01-20T13:46:41.375Z,2.08
2024-01-20T13:49:10.307Z,2.14
2024-01-20T13:51:38.485Z,2.12
2024-01-20T13:54:05.508Z,2.15
2024-01-20T13:56:32.029Z,2.20
2024-01-20T13:58:58.479Z,2.20
2024-01-20T14:01:25.093Z,2.17
2024-01-20T14:03:52.158Z,2.14
2024-01-20T14:06:19.556Z,2.02
2024-01-20T14:08:46.274Z,2.00
2024-01-20T14:11:12.904Z,2.02
2024-01-20T14:13:39.412Z,1.97
2024-01-20T14:16:06.446Z,2.06
2024-01-20T14:18:33.114Z,1.99
2024-01-20T14:20:59.703Z,1.94
2024-01-20T14:23:26.266Z,1.88
2024-01-20T14:25:54.378Z,1.75
2024-01-20T14:28:21.097Z,1.72
2024-01-20T14:30:47.767Z,1.76
2024-01-20T14:33:14.501Z,1.76
2024-01-20T14:35:41.075Z,1.64
2024-01-20T14:38:07.565Z,1.65
2024-01-20T14:40:34.117Z,1.62
2024-01-20T14:43:01.968Z,1.57
2024-01-20T14:45:29.566Z,1.53
2024-01-20T14:47:56.225Z,1.52
2024-01-20T14:50:22.777Z,1.39
2024-01-20T14:52:49.404Z,1.34
2024-01-20T14:55:16.037Z,1.28
2024-01-20T14:57:44.514Z,1.28
2024-01-20T15:00:11.674Z,1.19
2024-01-20T15:02:38.235Z,1.19
2024-01-20T15:05:05.403Z,1.20
2024-01-20T15:07:34.796Z,1.15
2024-01-20T15:10:02.124Z,1.06
2024-01-20T15:12:28.767Z,1.00
2024-01-20T15:14:56.881Z,0.96
2024-01-20T15:17:23.706Z,1.01
2024-01-20T15:19:50.612Z,0.91
2024-01-20T15:22:18.620Z,0.86
2024-01-20T15:24:45.693Z,0.76
2024-01-20T15:27:12.564Z,0.77
2024-01-20T15:29:39.176Z,0.80
2024-01-20T15:32:06.196Z,0.73
2024-01-20T15:34:32.916Z,0.63
2024-01-20T15:36:59.622Z,0.63
2024-01-20T15:39:26.302Z,0.59
2024-01-20T15:41:53.432Z,0.59
2024-01-20T15:44:20.058Z,0.56
2024-01-20T15:46:46.736Z,0.49
2024-01-20T15:49:14.929Z,0.46
2024-01-20T15:51:42.288Z,0.46
2024-01-20T15:54:09.611Z,0.44
2024-01-20T15:56:41.936Z,0.39
2024-01-20T15:59:08.450Z,0.40
2024-01-20T16:01:35.105Z,0.33
2024-01-20T16:04:01.766Z,0.28
2024-01-20T16:06:28.414Z,0.33
2024-01-20T16:08:57.672Z,0.27
2024-01-20T16:11:24.357Z,0.16
2024-01-20T16:13:50.924Z,0.07
2024-01-20T16:16:17.476Z,0.10
2024-01-20T16:18:44.091Z,0.07
2024-01-20T16:21:10.710Z,0.05
2024-01-20T16:23:37.276Z,0.02
2024-01-20T16:26:04.200Z,-0.03
2024-01-20T16:28:33.264Z,-0.07
2024-01-20T16:31:00.358Z,-0.08
2024-01-20T16:33:26.988Z,-0.17
2024-01-20T16:35:53.550Z,-0.10
2024-01-20T16:38:20.331Z,-0.09
2024-01-20T16:40:46.851Z,-0.04
2024-01-20T16:43:13.569Z,-0.08
2024-01-20T16:45:40.162Z,-0.11
2024-01-20T16:48:07.198Z,-0.07
2024-01-20T16:50:33.780Z,-0.07
2024-01-20T16:53:03.565Z,-0.02
2024-01-20T16:55:30.147Z,-0.10
2024-01-20T16:57:57.876Z,-0.08
2024-01-20T17:00:24.461Z,0.08
2024-01-20T17:02:51.063Z,0.00
2024-01-20T17:05:18.343Z,0.00
2024-01-20T17:07:46.580Z,0.01
2024-01-20T17:10:14.655Z,-0.08
2024-01-20T17:12:41.653Z,0.04
2024-01-20T17:15:09.610Z,-0.03
2024-01-20T17:17:37.061Z,-0.09
2024-01-20T17:20:05.038Z,-0.10
2024-01-20T17:22:31.815Z,-0.08
2024-01-20T17:24:58.315Z,-0.07
2024-01-20T17:27:24.830Z,-0.11
2024-01-20T17:29:51.415Z,-0.15
2024-01-20T17:32:17.977Z,-0.08
2024-01-20T17:34:44.657Z,-0.17
2024-01-20T17:37:11.231Z,-0.18
2024-01-20T17:39:39.058Z,-0.12
2024-01-20T17:42:06.232Z,-0.18
2024-01-20T17:44:33.544Z,-0.21
2024-01-20T17:47:00.618Z,-0.19
2024-01-20T17:49:27.409Z,-0.18
2024-01-20T17:51:54.113Z,-0.40
2024-01-20T17:54:23.640Z,-0.18
2024-01-20T17:56:52.140Z,-0.29
2024-01-20T17:59:18.641Z,-0.30
2024-01-20T18:01:45.421Z,-0.25
2024-01-20T18:04:12.087Z,-0.33
2024-01-20T18:06:41.133Z,-0.37
2024-01-20T18:09:07.757Z,-0.31
2024-01-20T18:11:34.313Z,-0.26
2024-01-20T18:14:00.909Z,-0.35
2024-01-20T18:16:27.454Z,-0.39
2024-01-20T18:18:54.202Z,-0.35
2024-01-20T18:21:20.938Z,-0.37
2024-01-20T18:23:47.464Z,-0.35
2024-01-20T18:26:14.067Z,-0.38
2024-01-20T18:28:40.600Z,-0.33
2024-01-20T18:31:08.614Z,-0.35
2024-01-20T18:33:36.131Z,-0.41
2024-01-20T18:36:06.091Z,-0.45
2024-01-20T18:38:32.640Z,-0.43
2024-01-20T18:40:59.877Z,-0.38
2024-01-20T18:43:26.485Z,-0.35
2024-01-20T18:45:53.002Z,-0.29
2024-01-20T18:48:19.641Z,-0.23
2024-01-20T18:50:46.262Z,-0.30
2024-01-20T18:53:13.923Z,-0.29
2024-01-20T18:55:43.994Z,-0.30
2024-01-20T18:58:12.133Z,-0.31
2024-01-20T19:00:41.108Z,-0.35
2024-01-20T19:03:08.542Z,-0.34
2024-01-20T19:05:35.153Z,-0.32
2024-01-20T19:08:01.723Z,-0.28
2024-01-20T19:10:31.060Z,-0.36
2024-01-20T19:12:57.735Z,-0.35
2024-01-20T19:15:24.372Z,-0.40
2024-01-20T19:17:51.265Z,-0.41
2024-01-20T19:20:23.317Z,-0.45
2024-01-20T19:22:50.628Z,-0.51
2024-01-20T19:25:17.203Z,-0.54
2024-01-20T19:27:44.015Z,-0.46
2024-01-20T19:30:10.969Z,-0.45
2024-01-20T19:32:37.662Z,-0.46
2024-01-20T19:35:04.443Z,-0.41
2024-01-20T19:37:31.257Z,-0.55
2024-01-20T19:39:57.731Z,-0.42
2024-01-20T19:42:24.277Z,-0.48
2024-01-20T19:44:52.146Z,-0.56
2024-01-20T19:47:19.180Z,-0.54
2024-01-20T19:49:46.034Z,-0.56
2024-01-20T19:52:12.671Z,-0.54
2024-01-20T19:54:39.227Z,-0.53
2024-01-20T19:57:06.030Z,-0.67
2024-01-20T19:59:32.597Z,-0.86
2024-01-20T20:01:59.155Z,-0.87
2024-01-20T20:04:25.768Z,-0.87
2024-01-20T20:06:52.647Z,-0.91
2024-01-20T20:09:21.160Z,-0.94
2024-01-20T20:11:48.161Z,-0.94
2024-01-20T20:14:14.853Z,-0.94
2024-01-20T20:16:41.804Z,-0.97
2024-01-20T20:19:09.130Z,-1.01
2024-01-20T20:21:35.768Z,-1.00
2024-01-20T20:24:02.320Z,-1.07
2024-01-20T20:26:28.943Z,-1.06
2024-01-20T20:28:55.420Z,-1.09
2024-01-20T20:31:23.540Z,-0.98
2024-01-20T20:33:50.483Z,-0.99
2024-01-20T20:36:20.098Z,-1.22
2024-01-20T20:38:47.053Z,-1.32
2024-01-20T20:41:13.534Z,-1.43
2024-01-20T20:43:40.016Z,-1.45
2024-01-20T20:46:06.645Z,-1.53
2024-01-20T20:48:33.333Z,-1.38
2024-01-20T20:50:59.938Z,-1.30
2024-01-20T20:53:26.557Z,-1.26
2024-01-20T20:55:53.089Z,-1.22
2024-01-20T20:58:19.564Z,-1.17
2024-01-20T21:00:46.147Z,-1.12
2024-01-20T21:03:12.821Z,-1.17
2024-01-20T21:05:39.797Z,-1.42
2024-01-20T21:08:06.921Z,-1.30
2024-01-20T21:10:33.575Z,-1.25
2024-01-20T21:13:00.829Z,-1.27
2024-01-20T21:15:27.588Z,-1.22
2024-01-20T21:17:54.306Z,-1.34
2024-01-20T21:20:21.171Z,-1.43
2024-01-20T21:22:47.838Z,-1.36
2024-01-20T21:25:14.802Z,-1.29
2024-01-20T21:27:41.598Z,-1.41
2024-01-20T21:30:08.839Z,-1.34
2024-01-20T21:32:35.608Z,-1.49
2024-01-20T21:35:02.946Z,-1.37
2024-01-20T21:37:29.615Z,-1.38
2024-01-20T21:39:56.164Z,-1.41
2024-01-20T21:42:22.768Z,-1.45
2024-01-20T21:44:49.442Z,-1.37
2024-01-20T21:47:16.013Z,-1.41
2024-01-20T21:49:42.607Z,-1.44
2024-01-20T21:52:09.135Z,-1.39
2024-01-20T21:54:35.834Z,-1.46
2024-01-20T21:57:02.461Z,-1.53
2024-01-20T21:59:29.043Z,-1.49
2024-01-20T22:01:55.543Z,-1.54
2024-01-20T22:04:22.371Z,-1.62
2024-01-20T22:06:51.136Z,-1.41
2024-01-20T22:09:18.090Z,-1.42
2024-01-20T22:11:44.745Z,-1.49
2024-01-20T22:14:11.243Z,-1.62
2024-01-20T22:16:37.765Z,-1.79
2024-01-20T22:19:04.352Z,-1.84
2024-01-20T22:21:31.006Z,-1.79
2024-01-20T22:23:57.697Z,-1.88
2024-01-20T22:26:24.244Z,-1.82
2024-01-20T22:28:51.352Z,-1.91
2024-01-20T22:31:19.646Z,-1.90
2024-01-20T22:33:46.207Z,-2.09
2024-01-20T22:36:12.876Z,-1.92
2024-01-20T22:38:39.575Z,-1.98
2024-01-20T22:41:06.350Z,-2.06
2024-01-20T22:43:32.856Z,-1.82
2024-01-20T22:45:59.664Z,-1.85
2024-01-20T22:48:26.588Z,-1.89
2024-01-20T22:50:55.528Z,-1.87
2024-01-20T22:53:21.965Z,-1.78
2024-01-20T22:55:48.447Z,-1.70
2024-01-20T22:58:14.988Z,-1.71
2024-01-20T23:00:41.977Z,-1.71
2024-01-20T23:03:08.640Z,-1.73
2024-01-20T23:05:35.253Z,-1.73
2024-01-20T23:08:01.743Z,-1.76
2024-01-20T23:10:28.192Z,-1.73
2024-01-20T23:12:54.816Z,-1.70
2024-01-20T23:15:21.392Z,-1.72
2024-01-20T23:17:47.975Z,-1.76
2024-01-20T23:20:15.937Z,-1.77
2024-01-20T23:22:42.589Z,-1.86
2024-01-20T23:25:10.455Z,-1.81
2024-01-20T23:27:37.407Z,-1.89
2024-01-20T23:30:04.324Z,-1.94
2024-01-20T23:32:31.120Z,-1.85
2024-01-20T23:34:58.107Z,-1.84
2024-01-20T23:37:24.929Z,-1.90
2024-01-20T23:39:51.549Z,-1.99
2024-01-20T23:42:18.132Z,-1.97
2024-01-20T23:44:44.639Z,-2.09
2024-01-20T23:47:11.151Z,-2.03
2024-01-20T23:49:37.826Z,-2.10
2024-01-20T23:52:05.010Z,-2.17
2024-01-20T23:54:31.600Z,-2.11
2024-01-20T23:56:58.106Z,-2.19
2024-01-20T23:59:24.573Z,-2.23
